Time;durP1;ratioP1;P1;durP2;ratioP2;P2;SDS_P1;SDS_P2;PMS_P1;PMS_P2;Temp;Humidity;BMP_temperature;BMP_pressure;BME280_temperature;BME280_humidity;BME280_pressure;Samples;Min_cycle;Max_cycle;Signal;HPM_P1;HPM_P2
2022/03/24 00:00:38;;;;;;;19.73;10.03;;;1.80;29.80;;;;;;5096352;27;46346;-65
2022/03/24 00:03:08;;;;;;;15.10;8.95;;;1.80;29.90;;;;;;5093685;27;46648;-66
2022/03/24 00:05:34;;;;;;;17.13;10.15;;;1.80;30.00;;;;;;5101298;27;46618;-65
2022/03/24 00:08:00;;;;;;;19.35;10.27;;;1.70;30.00;;;;;;5091313;27;46258;-65
2022/03/24 00:10:26;;;;;;;20.10;11.17;;;1.60;30.00;;;;;;5102376;27;45894;-65
2022/03/24 00:12:52;;;;;;;21.87;10.53;;;1.60;30.20;;;;;;5095723;27;46375;-65
2022/03/24 00:15:19;;;;;;;18.25;10.60;;;1.50;31.60;;;;;;5090140;27;46727;-66
2022/03/24 00:17:45;;;;;;;18.58;10.73;;;1.50;30.50;;;;;;5089521;27;46393;-65
2022/03/24 00:20:14;;;;;;;22.43;10.30;;;1.40;30.50;;;;;;5093111;27;46625;-64
2022/03/24 00:22:40;;;;;;;19.13;10.15;;;1.30;30.70;;;;;;5091083;27;46398;-65
2022/03/24 00:25:06;;;;;;;16.73;10.27;;;1.20;30.80;;;;;;5094044;27;46489;-64
2022/03/24 00:27:32;;;;;;;20.48;10.13;;;1.20;31.00;;;;;;5095333;27;49121;-64
2022/03/24 00:29:58;;;;;;;26.03;10.73;;;1.20;31.10;;;;;;5094195;27;46410;-64
2022/03/24 00:32:24;;;;;;;22.40;10.30;;;1.20;31.10;;;;;;5093682;27;46445;-64
2022/03/24 00:34:50;;;;;;;20.30;10.13;;;1.10;31.10;;;;;;5088539;27;46029;-65
2022/03/24 00:37:17;;;;;;;17.70;9.65;;;1.10;31.30;;;;;;5090738;27;48783;-65
2022/03/24 00:39:43;;;;;;;17.80;9.90;;;1.10;31.40;;;;;;5100334;27;46460;-63
2022/03/24 00:42:12;;;;;;;19.08;10.00;;;1.00;31.60;;;;;;5103307;27;45839;-66
2022/03/24 00:44:42;;;;;;;22.20;10.48;;;1.00;31.60;;;;;;5100176;27;46322;-64
2022/03/24 00:47:11;;;;;;;29.30;10.63;;;1.00;31.60;;;;;;5097852;27;46392;-64
2022/03/24 00:49:42;;;;;;;24.42;9.45;;;1.10;31.80;;;;;;5096670;27;46333;-65
2022/03/24 00:52:09;;;;;;;21.40;10.05;;;1.10;31.70;;;;;;5092840;27;46352;-64
2022/03/24 00:54:35;;;;;;;17.48;10.00;;;1.20;31.40;;;;;;5099499;27;46355;-64
2022/03/24 00:57:01;;;;;;;21.20;10.20;;;1.20;31.40;;;;;;5089036;27;47912;-64
2022/03/24 00:59:27;;;;;;;20.40;9.93;;;1.20;31.60;;;;;;5091936;27;46406;-64
2022/03/24 01:01:54;;;;;;;19.90;10.02;;;1.10;31.70;;;;;;5099936;27;46292;-66
2022/03/24 01:04:20;;;;;;;18.50;10.00;;;1.10;33.00;;;;;;5093613;27;46363;-64
2022/03/24 01:06:46;;;;;;;18.33;9.70;;;1.00;31.70;;;;;;5090682;27;47770;-65
2022/03/24 01:09:12;;;;;;;17.07;9.90;;;0.90;31.60;;;;;;5098093;27;46502;-64
2022/03/24 01:11:37;;;;;;;20.77;10.90;;;0.90;31.60;;;;;;5100155;27;46381;-65
2022/03/24 01:14:05;;;;;;;18.90;9.70;;;0.90;31.60;;;;;;5093722;27;46464;-64
2022/03/24 01:16:31;;;;;;;25.75;9.57;;;0.80;31.50;;;;;;5098792;27;48893;-64
2022/03/24 01:18:57;;;;;;;21.63;10.45;;;0.80;31.80;;;;;;5092367;27;46543;-63
2022/03/24 01:21:23;;;;;;;22.70;9.93;;;0.80;31.50;;;;;;5108665;27;46367;-64
2022/03/24 01:23:48;;;;;;;17.33;9.47;;;0.80;31.80;;;;;;5095168;27;46432;-64
2022/03/24 01:26:15;;;;;;;26.67;9.80;;;0.70;31.90;;;;;;5095536;27;48130;-64
2022/03/24 01:28:41;;;;;;;21.42;10.30;;;0.60;32.10;;;;;;5101170;27;45946;-64
2022/03/24 01:31:11;;;;;;;19.10;9.60;;;0.60;32.30;;;;;;5095453;27;46397;-64
2022/03/24 01:33:38;;;;;;;19.45;9.73;;;0.60;32.40;;;;;;5100615;27;45876;-65
2022/03/24 01:36:10;;;;;;;22.20;10.10;;;0.60;33.80;;;;;;5096342;27;46430;-64
2022/03/24 01:38:37;;;;;;;21.92;9.82;;;0.50;32.60;;;;;;5092928;27;46587;-65
2022/03/24 01:41:03;;;;;;;19.70;10.10;;;0.50;32.60;;;;;;5094580;27;46381;-64
2022/03/24 01:43:30;;;;;;;16.80;9.45;;;0.50;32.70;;;;;;5105472;27;46340;-63
2022/03/24 01:45:56;;;;;;;19.50;10.95;;;0.50;32.70;;;;;;5098289;27;48822;-64
2022/03/24 01:48:21;;;;;;;18.43;9.33;;;0.50;32.70;;;;;;5086720;27;46404;-66
2022/03/24 01:50:47;;;;;;;16.40;9.27;;;0.50;32.80;;;;;;5093851;27;46404;-65
2022/03/24 01:53:13;;;;;;;20.20;9.73;;;0.50;32.90;;;;;;5099766;27;46461;-66
2022/03/24 01:55:41;;;;;;;15.13;8.80;;;0.50;32.90;;;;;;5097646;27;46477;-64
2022/03/24 01:58:07;;;;;;;21.92;10.05;;;0.50;33.00;;;;;;5092499;27;46537;-65
2022/03/24 02:00:34;;;;;;;20.00;9.90;;;0.50;33.00;;;;;;5090857;27;46270;-65
2022/03/24 02:03:02;;;;;;;18.63;10.02;;;0.50;33.00;;;;;;5096725;27;46313;-65
2022/03/24 02:05:33;;;;;;;18.13;9.65;;;0.40;33.00;;;;;;5093231;27;46408;-65
2022/03/24 02:08:03;;;;;;;22.33;10.05;;;0.40;33.30;;;;;;5097948;27;46457;-65
2022/03/24 02:10:33;;;;;;;17.13;9.25;;;0.30;33.30;;;;;;5087759;27;46470;-65
2022/03/24 02:12:59;;;;;;;20.35;9.95;;;0.20;33.40;;;;;;5089673;27;46403;-64
2022/03/24 02:15:28;;;;;;;18.25;9.52;;;0.20;33.50;;;;;;5094298;27;46366;-65
2022/03/24 02:17:54;;;;;;;16.80;9.50;;;0.10;33.70;;;;;;5097340;27;46410;-65
2022/03/24 02:20:21;;;;;;;16.35;9.30;;;0.10;33.60;;;;;;5098931;27;46581;-65
2022/03/24 02:22:48;;;;;;;16.70;9.63;;;0.10;33.70;;;;;;5097546;27;45901;-65
2022/03/24 02:25:14;;;;;;;14.63;8.75;;;0.00;33.60;;;;;;5092975;27;46367;-65
2022/03/24 02:27:40;;;;;;;15.38;8.52;;;0.00;33.70;;;;;;5099187;27;46338;-64
2022/03/24 02:30:07;;;;;;;17.63;10.10;;;0.00;33.80;;;;;;5099053;27;46405;-65
2022/03/24 02:32:33;;;;;;;33.95;10.50;;;0.00;33.60;;;;;;5092428;27;46593;-65
2022/03/24 02:34:59;;;;;;;15.87;9.47;;;0.00;33.60;;;;;;5095669;27;48854;-65
2022/03/24 02:37:25;;;;;;;18.70;9.03;;;0.00;33.70;;;;;;5092393;27;46583;-64
2022/03/24 02:39:53;;;;;;;22.35;9.55;;;0.00;33.70;;;;;;5098145;27;46379;-66
2022/03/24 02:42:22;;;;;;;17.77;8.75;;;-0.10;33.80;;;;;;5098778;27;46387;-65
2022/03/24 02:44:51;;;;;;;20.38;9.57;;;-0.10;33.80;;;;;;5097516;27;48866;-65
2022/03/24 02:47:18;;;;;;;17.58;8.70;;;-0.10;33.80;;;;;;5093529;27;46013;-65
2022/03/24 02:49:45;;;;;;;18.15;9.85;;;0.00;33.90;;;;;;5095276;27;46266;-66
2022/03/24 02:52:12;;;;;;;19.88;9.48;;;-0.10;33.80;;;;;;5102617;27;46610;-65
2022/03/24 02:54:38;;;;;;;20.38;9.43;;;0.00;34.00;;;;;;5102040;27;48789;-65
2022/03/24 02:57:05;;;;;;;14.30;8.85;;;0.00;34.00;;;;;;5088231;27;46039;-65
2022/03/24 02:59:31;;;;;;;18.77;9.43;;;-0.10;34.00;;;;;;5100588;27;46399;-64
2022/03/24 03:02:02;;;;;;;18.90;8.87;;;-0.10;34.00;;;;;;5091583;27;45836;-64
2022/03/24 03:04:34;;;;;;;15.85;8.90;;;-0.10;34.10;;;;;;5096322;27;47805;-64
2022/03/24 03:07:02;;;;;;;16.05;8.82;;;-0.10;34.20;;;;;;5107855;27;46024;-65
2022/03/24 03:09:28;;;;;;;20.50;9.55;;;-0.10;34.20;;;;;;5089473;27;46506;-64
2022/03/24 03:11:54;;;;;;;18.15;8.93;;;-0.10;34.20;;;;;;5089406;27;46641;-65
2022/03/24 03:14:20;;;;;;;17.03;9.70;;;-0.10;34.20;;;;;;5087210;27;48265;-65
2022/03/24 03:16:47;;;;;;;21.05;9.55;;;-0.20;34.20;;;;;;5091973;27;46424;-64
2022/03/24 03:19:14;;;;;;;19.88;10.07;;;-0.10;34.30;;;;;;5095233;27;46358;-64
2022/03/24 03:21:41;;;;;;;18.10;9.18;;;-0.10;34.40;;;;;;5094860;27;45915;-64
2022/03/24 03:24:08;;;;;;;18.98;9.75;;;-0.10;34.40;;;;;;5087952;27;47060;-65
2022/03/24 03:26:34;;;;;;;19.05;9.45;;;-0.10;34.40;;;;;;5096223;27;46426;-65
2022/03/24 03:29:01;;;;;;;18.67;10.27;;;-0.10;34.40;;;;;;5096508;27;46394;-64
2022/03/24 03:31:28;;;;;;;14.68;8.52;;;-0.10;34.50;;;;;;5100145;27;46418;-65
2022/03/24 03:33:54;;;;;;;17.45;9.30;;;-0.20;34.50;;;;;;5092330;27;48660;-66
2022/03/24 03:36:24;;;;;;;19.83;10.55;;;-0.20;34.60;;;;;;5095631;27;46505;-65
2022/03/24 03:38:50;;;;;;;16.73;9.68;;;-0.20;34.70;;;;;;5088642;27;46467;-64
2022/03/24 03:41:18;;;;;;;16.83;9.60;;;-0.30;34.70;;;;;;5098812;27;46532;-65
2022/03/24 03:43:44;;;;;;;17.52;9.50;;;-0.30;34.80;;;;;;5093377;27;47836;-64
2022/03/24 03:46:11;;;;;;;16.38;8.93;;;-0.40;34.80;;;;;;5100065;27;46748;-65
2022/03/24 03:48:40;;;;;;;17.77;8.88;;;-0.40;34.90;;;;;;5110424;27;46504;-65
2022/03/24 03:51:07;;;;;;;15.98;9.25;;;-0.40;34.90;;;;;;5100615;27;46370;-64
2022/03/24 03:53:34;;;;;;;15.15;8.38;;;-0.40;34.90;;;;;;5101010;27;48062;-65
2022/03/24 03:56:01;;;;;;;17.05;9.05;;;-0.50;34.90;;;;;;5091409;27;46342;-65
2022/03/24 03:58:26;;;;;;;17.75;8.90;;;-0.50;34.80;;;;;;5100387;27;46680;-65
2022/03/24 04:00:52;;;;;;;15.67;8.40;;;-0.50;34.90;;;;;;5099983;27;46420;-64
2022/03/24 04:03:21;;;;;;;22.53;9.10;;;-0.50;34.90;;;;;;5099487;27;48234;-63
2022/03/24 04:05:46;;;;;;;22.88;10.07;;;-0.50;35.10;;;;;;5091133;27;46286;-64
2022/03/24 04:08:13;;;;;;;18.73;9.30;;;-0.60;35.00;;;;;;5091538;27;46529;-64
2022/03/24 04:10:39;;;;;;;17.80;9.50;;;-0.60;35.20;;;;;;5094634;27;46296;-63
2022/03/24 04:13:08;;;;;;;16.10;8.60;;;-0.60;35.20;;;;;;5102064;27;47717;-63
2022/03/24 04:15:34;;;;;;;17.55;8.68;;;-0.70;35.20;;;;;;5101652;27;46413;-64
2022/03/24 04:18:01;;;;;;;15.40;8.23;;;-0.70;35.20;;;;;;5100378;27;46758;-64
2022/03/24 04:20:27;;;;;;;16.75;9.57;;;-0.70;35.10;;;;;;5101637;27;45875;-64
2022/03/24 04:22:54;;;;;;;16.17;8.45;;;-0.70;35.10;;;;;;5095222;27;46322;-64
2022/03/24 04:25:21;;;;;;;16.17;8.48;;;-0.70;35.20;;;;;;5101290;27;46537;-64
2022/03/24 04:27:48;;;;;;;14.63;8.80;;;-0.70;35.30;;;;;;5099687;27;46399;-64
2022/03/24 04:30:14;;;;;;;19.20;9.57;;;-0.80;35.20;;;;;;5099588;27;46474;-64
2022/03/24 04:32:41;;;;;;;18.73;9.20;;;-0.80;35.40;;;;;;5099473;27;49342;-63
2022/03/24 04:35:08;;;;;;;16.60;8.57;;;-0.80;35.30;;;;;;5089908;27;46359;-65
2022/03/24 04:37:35;;;;;;;17.80;8.30;;;-0.80;35.50;;;;;;5102314;27;46596;-64
2022/03/24 04:40:01;;;;;;;16.73;8.95;;;-0.80;35.30;;;;;;5101386;27;46315;-65
2022/03/24 04:42:27;;;;;;;18.40;8.63;;;-0.80;35.30;;;;;;5098186;27;46463;-63
2022/03/24 04:44:53;;;;;;;15.40;9.23;;;-0.80;35.50;;;;;;5099930;27;46660;-64
2022/03/24 04:47:18;;;;;;;18.20;9.50;;;-0.80;35.50;;;;;;5100611;27;45830;-63
2022/03/24 04:49:44;;;;;;;22.20;9.53;;;-0.80;35.40;;;;;;5101357;27;46327;-66
2022/03/24 04:52:10;;;;;;;20.10;9.27;;;-0.80;35.50;;;;;;5095731;27;46437;-63
2022/03/24 04:54:36;;;;;;;17.53;8.83;;;-0.80;35.60;;;;;;5099184;27;46353;-65
2022/03/24 04:57:02;;;;;;;17.70;9.50;;;-0.80;35.60;;;;;;5097447;27;46351;-64
2022/03/24 04:59:28;;;;;;;24.55;9.85;;;-0.90;35.50;;;;;;5092119;27;46301;-65
2022/03/24 05:01:55;;;;;;;17.70;8.40;;;-0.90;35.90;;;;;;5100421;27;47985;-65
2022/03/24 05:04:23;;;;;;;25.65;9.23;;;-1.00;35.90;;;;;;5098061;27;46105;-64
2022/03/24 05:06:49;;;;;;;14.93;7.53;;;-1.00;36.00;;;;;;5100848;27;46699;-64
2022/03/24 05:09:15;;;;;;;16.55;9.20;;;-1.00;36.00;;;;;;5100541;27;45976;-65
2022/03/24 05:11:41;;;;;;;15.90;8.63;;;-1.00;36.00;;;;;;5098739;27;47986;-63
2022/03/24 05:14:08;;;;;;;16.10;8.90;;;-0.90;36.10;;;;;;5100703;27;46700;-65
2022/03/24 05:16:34;;;;;;;17.85;9.48;;;-0.90;36.00;;;;;;5099843;27;46296;-65
2022/03/24 05:19:01;;;;;;;22.67;9.25;;;-0.80;36.00;;;;;;5099503;27;46572;-65
2022/03/24 05:21:27;;;;;;;15.68;8.13;;;-0.80;35.90;;;;;;5093424;27;46559;-65
2022/03/24 05:23:53;;;;;;;16.55;9.23;;;-0.80;35.90;;;;;;5099927;27;46471;-64
2022/03/24 05:26:20;;;;;;;19.15;9.15;;;-0.70;36.00;;;;;;5096723;27;46261;-64
2022/03/24 05:28:47;;;;;;;14.70;8.23;;;-0.70;36.10;;;;;;5100483;27;46549;-65
2022/03/24 05:31:13;;;;;;;16.05;8.80;;;-0.70;36.00;;;;;;5099467;27;48153;-65
2022/03/24 05:33:39;;;;;;;16.80;8.82;;;-0.70;36.10;;;;;;5099570;27;46340;-65
2022/03/24 05:36:06;;;;;;;17.20;9.20;;;-0.60;36.10;;;;;;5099051;27;46314;-66
2022/03/24 05:38:31;;;;;;;18.92;9.27;;;-0.50;36.00;;;;;;5099700;27;46506;-65
2022/03/24 05:40:57;;;;;;;16.17;9.10;;;-0.10;36.70;;;;;;5108623;27;49032;-64
2022/03/24 05:43:24;;;;;;;19.52;10.02;;;0.30;37.10;;;;;;5085506;27;46487;-66
2022/03/24 05:45:49;;;;;;;22.27;8.98;;;0.60;37.30;;;;;;5090431;27;46471;-64
2022/03/24 05:48:16;;;;;;;17.23;8.40;;;1.00;37.40;;;;;;5100889;27;46417;-65
2022/03/24 05:50:43;;;;;;;25.70;9.05;;;1.30;37.30;;;;;;5099316;27;48047;-63
2022/03/24 05:53:09;;;;;;;14.13;8.32;;;1.50;36.70;;;;;;5097912;27;46861;-63
2022/03/24 05:55:37;;;;;;;17.60;8.90;;;1.70;36.10;;;;;;5093822;27;46381;-64
2022/03/24 05:58:04;;;;;;;15.57;8.27;;;1.80;35.20;;;;;;5100219;27;46346;-64
2022/03/24 06:00:30;;;;;;;17.83;9.07;;;1.70;34.70;;;;;;5100083;27;48916;-63
2022/03/24 06:02:56;;;;;;;38.90;10.70;;;1.60;34.60;;;;;;5098506;27;46441;-64
2022/03/24 06:05:25;;;;;;;34.67;10.80;;;1.50;34.90;;;;;;5092847;27;46476;-63
2022/03/24 06:07:51;;;;;;;39.15;10.20;;;1.60;35.30;;;;;;5088382;27;46711;-63
2022/03/24 06:10:17;;;;;;;27.88;9.30;;;1.70;36.10;;;;;;5091300;27;47315;-64
2022/03/24 06:12:43;;;;;;;24.33;9.17;;;2.20;35.50;;;;;;5097542;27;46463;-64
2022/03/24 06:15:09;;;;;;;30.30;10.43;;;2.70;34.20;;;;;;5098951;27;46444;-63
2022/03/24 06:17:35;;;;;;;20.07;9.43;;;2.70;33.50;;;;;;5087066;27;46554;-64
2022/03/24 06:20:02;;;;;;;23.77;9.60;;;2.70;33.50;;;;;;5099063;27;47793;-63
2022/03/24 06:22:28;;;;;;;31.63;10.70;;;2.80;33.40;;;;;;5097590;27;46322;-64
2022/03/24 06:24:54;;;;;;;22.13;9.82;;;2.80;33.40;;;;;;5102851;27;46366;-64
2022/03/24 06:27:20;;;;;;;19.42;10.57;;;2.80;33.60;;;;;;5093263;27;46578;-63
2022/03/24 06:29:47;;;;;;;20.60;9.90;;;3.00;33.80;;;;;;5095491;27;48788;-63
2022/03/24 06:32:15;;;;;;;24.23;11.18;;;3.10;34.00;;;;;;5100813;27;45861;-63
2022/03/24 06:34:40;;;;;;;21.65;10.20;;;3.20;34.00;;;;;;5092143;27;45841;-65
2022/03/24 06:37:07;;;;;;;20.30;9.83;;;3.40;34.30;;;;;;5096043;27;46899;-64
2022/03/24 06:39:32;;;;;;;18.13;10.65;;;3.60;34.50;;;;;;5101477;27;46737;-66
2022/03/24 06:41:58;;;;;;;18.90;10.73;;;3.80;34.60;;;;;;5093268;27;46606;-66
2022/03/24 06:44:24;;;;;;;23.60;11.67;;;4.00;34.40;;;;;;5094886;27;46354;-66
2022/03/24 06:46:50;;;;;;;22.70;11.83;;;4.20;34.50;;;;;;5093987;27;45917;-66
2022/03/24 06:49:15;;;;;;;31.47;9.70;;;4.40;34.60;;;;;;5092251;27;46891;-64
2022/03/24 06:51:41;;;;;;;24.53;12.27;;;4.60;34.80;;;;;;5100818;27;46363;-66
2022/03/24 06:54:07;;;;;;;23.30;11.43;;;4.80;34.90;;;;;;5098989;27;46402;-64
2022/03/24 06:56:34;;;;;;;18.00;10.27;;;5.00;35.10;;;;;;5086360;27;46243;-64
2022/03/24 06:59:00;;;;;;;26.13;15.90;;;5.30;35.00;;;;;;5089347;27;49024;-65
2022/03/24 07:01:25;;;;;;;19.17;11.00;;;5.50;34.80;;;;;;5093879;27;46438;-66
2022/03/24 07:03:51;;;;;;;18.13;10.53;;;5.60;34.70;;;;;;5096473;27;46495;-65
2022/03/24 07:06:17;;;;;;;21.17;11.33;;;5.80;34.80;;;;;;5094038;27;46330;-65
2022/03/24 07:08:43;;;;;;;17.93;10.50;;;6.00;34.80;;;;;;5095417;27;48663;-65
2022/03/24 07:11:09;;;;;;;17.83;10.70;;;6.30;34.90;;;;;;5091324;27;46496;-66
2022/03/24 07:13:35;;;;;;;20.07;10.10;;;6.50;34.70;;;;;;5094422;27;46405;-66
2022/03/24 07:16:01;;;;;;;21.53;10.53;;;6.70;34.70;;;;;;5094080;27;46644;-65
2022/03/24 07:18:27;;;;;;;20.40;10.63;;;6.90;34.50;;;;;;5110473;27;47695;-67
2022/03/24 07:20:52;;;;;;;20.63;11.40;;;7.10;34.40;;;;;;5093936;27;46559;-65
2022/03/24 07:23:18;;;;;;;20.53;11.83;;;7.30;34.30;;;;;;5093532;27;46402;-66
2022/03/24 07:25:44;;;;;;;21.97;11.70;;;7.60;34.40;;;;;;5098156;27;46410;-66
2022/03/24 07:28:14;;;;;;;20.13;11.90;;;7.80;34.30;;;;;;5107463;27;47989;-67
2022/03/24 07:30:39;;;;;;;21.40;12.00;;;7.90;34.20;;;;;;5102602;27;46325;-66
2022/03/24 07:33:07;;;;;;;22.90;10.73;;;8.10;34.40;;;;;;5091992;27;46440;-65
2022/03/24 07:35:34;;;;;;;23.47;11.50;;;8.30;34.10;;;;;;5092334;27;46796;-64
2022/03/24 07:38:00;;;;;;;20.87;11.13;;;8.50;34.00;;;;;;5090421;27;47994;-64
2022/03/24 07:40:26;;;;;;;19.90;11.00;;;8.80;34.10;;;;;;5093739;27;45851;-64
2022/03/24 07:42:54;;;;;;;17.80;11.00;;;8.90;34.00;;;;;;5090257;27;46415;-64
2022/03/24 07:45:22;;;;;;;21.03;10.53;;;9.10;33.80;;;;;;5094864;27;46656;-65
2022/03/24 07:48:06;;;;;;;22.20;10.90;;;9.40;33.70;;;;;;5096443;27;48802;-65
2022/03/24 07:50:32;;;;;;;20.03;10.37;;;9.60;33.60;;;;;;5099343;27;45953;-64
2022/03/24 07:53:17;;;;;;;20.10;10.13;;;9.80;33.20;;;;;;5094248;27;46302;-64
2022/03/24 07:55:44;;;;;;;14.73;9.50;;;9.90;33.10;;;;;;5100165;27;46482;-65
2022/03/24 07:58:12;;;;;;;18.67;9.70;;;10.20;31.60;;;;;;5101017;27;48713;-65
2022/03/24 08:00:39;;;;;;;16.43;10.30;;;10.40;31.10;;;;;;5100459;27;46421;-66
2022/03/24 08:03:10;;;;;;;18.60;10.67;;;10.70;30.80;;;;;;5089996;27;45807;-65
2022/03/24 08:05:36;;;;;;;23.97;9.90;;;10.70;30.70;;;;;;5101642;27;46452;-65
2022/03/24 08:08:04;;;;;;;25.60;10.33;;;10.80;30.50;;;;;;5101216;27;48805;-65
2022/03/24 08:10:30;;;;;;;18.53;10.17;;;10.80;30.10;;;;;;5100116;27;46637;-65
2022/03/24 08:12:56;;;;;;;22.40;10.47;;;10.90;30.00;;;;;;5096040;27;46430;-66
2022/03/24 08:15:22;;;;;;;18.43;10.17;;;11.10;29.90;;;;;;5094539;27;46473;-67
2022/03/24 08:17:48;;;;;;;20.37;10.00;;;11.30;29.60;;;;;;5092698;27;47937;-65
2022/03/24 08:20:14;;;;;;;16.03;9.27;;;11.50;29.30;;;;;;5092744;27;46353;-65
2022/03/24 08:22:39;;;;;;;22.57;11.37;;;11.70;29.10;;;;;;5097031;27;46371;-66
2022/03/24 08:25:08;;;;;;;28.80;9.97;;;11.80;28.70;;;;;;5095523;27;46151;-66
2022/03/24 08:27:35;;;;;;;17.67;10.57;;;11.90;28.40;;;;;;5090030;27;48835;-66
2022/03/24 08:30:01;;;;;;;18.43;11.13;;;12.00;28.10;;;;;;5098517;27;46230;-66
2022/03/24 08:32:27;;;;;;;17.13;10.37;;;12.10;27.60;;;;;;5093038;27;46348;-66
2022/03/24 08:34:53;;;;;;;18.57;11.00;;;12.20;27.70;;;;;;5092046;27;46047;-65
2022/03/24 08:37:18;;;;;;;20.40;10.60;;;12.20;27.70;;;;;;5092534;27;47929;-66
2022/03/24 08:39:44;;;;;;;22.20;11.33;;;12.50;27.90;;;;;;5090851;27;46448;-66
2022/03/24 08:42:10;;;;;;;20.37;11.03;;;12.60;26.90;;;;;;5092081;27;46359;-65
2022/03/24 08:44:35;;;;;;;22.50;10.50;;;12.70;26.70;;;;;;5092573;27;46432;-65
2022/03/24 08:47:01;;;;;;;32.07;11.23;;;12.90;26.40;;;;;;5092692;27;47943;-66
2022/03/24 08:49:27;;;;;;;19.60;11.10;;;13.00;26.00;;;;;;5091197;27;46421;-65
2022/03/24 08:51:53;;;;;;;17.77;11.17;;;13.10;25.50;;;;;;5089761;27;46396;-66
2022/03/24 08:54:19;;;;;;;21.20;11.50;;;13.20;25.20;;;;;;5090229;27;46601;-66
2022/03/24 08:56:45;;;;;;;27.63;11.37;;;13.30;25.30;;;;;;5091485;27;47950;-65
2022/03/24 08:59:11;;;;;;;16.90;10.23;;;13.40;25.10;;;;;;5089186;27;46484;-65
2022/03/24 09:01:38;;;;;;;18.70;11.00;;;13.50;25.00;;;;;;5091522;27;46761;-66
2022/03/24 09:04:04;;;;;;;22.53;11.73;;;13.60;25.90;;;;;;5090116;27;46652;-65
2022/03/24 09:06:30;;;;;;;18.17;10.33;;;13.70;24.70;;;;;;5094464;27;46483;-65
2022/03/24 09:08:56;;;;;;;14.33;9.37;;;13.70;24.00;;;;;;5076264;27;46759;-67
2022/03/24 09:11:21;;;;;;;19.60;11.80;;;13.70;24.80;;;;;;5096657;27;46475;-64
2022/03/24 09:16:41;;;;;;;18.60;10.97;;;14.00;23.70;;;;;;5745969;22;47383;-64
2022/03/24 09:19:07;;;;;;;28.30;11.60;;;14.10;23.80;;;;;;5068889;28;46357;-64
2022/03/24 09:21:32;;;;;;;26.43;11.90;;;14.20;23.50;;;;;;5077560;28;46287;-64
2022/03/24 09:23:58;;;;;;;21.13;11.40;;;14.40;23.10;;;;;;5071307;28;46539;-64
2022/03/24 09:26:24;;;;;;;19.70;10.80;;;14.50;22.60;;;;;;5059305;28;47268;-64
2022/03/24 09:28:52;;;;;;;19.07;12.40;;;14.60;22.10;;;;;;5059644;28;46591;-64
2022/03/24 09:31:21;;;;;;;19.33;12.03;;;14.60;21.70;;;;;;5054127;28;46438;-64
2022/03/24 09:33:48;;;;;;;28.40;13.20;;;14.70;21.70;;;;;;5062972;28;46411;-63
2022/03/24 09:36:14;;;;;;;22.40;12.73;;;14.80;21.70;;;;;;5062353;28;48410;-64
2022/03/24 09:38:39;;;;;;;24.63;13.17;;;14.80;21.50;;;;;;5061545;28;46333;-62
2022/03/24 09:41:06;;;;;;;23.03;12.03;;;14.90;21.30;;;;;;5069027;28;46380;-63
2022/03/24 09:43:34;;;;;;;22.80;13.50;;;14.90;20.90;;;;;;5062021;28;46714;-64
2022/03/24 09:46:01;;;;;;;24.83;12.83;;;15.10;20.80;;;;;;5058195;28;47033;-64
2022/03/24 09:48:27;;;;;;;24.37;13.10;;;15.20;20.70;;;;;;5056102;28;46252;-64
2022/03/24 09:50:53;;;;;;;19.80;11.43;;;15.40;20.60;;;;;;5060070;28;45903;-63
2022/03/24 09:53:19;;;;;;;21.90;11.90;;;15.40;20.40;;;;;;5062245;28;46326;-64
2022/03/24 09:55:47;;;;;;;23.70;12.00;;;15.50;20.30;;;;;;5060633;28;46607;-65
2022/03/24 09:58:13;;;;;;;21.97;12.83;;;15.60;19.70;;;;;;5066946;28;46550;-64
2022/03/24 10:00:39;;;;;;;23.33;10.03;;;15.60;19.30;;;;;;5046753;28;46663;-64
2022/03/24 10:03:17;;;;;;;21.33;11.17;;;15.70;19.40;;;;;;5061417;28;46500;-64
2022/03/24 10:05:58;;;;;;;25.43;11.23;;;15.70;18.80;;;;;;5057709;28;47223;-64
2022/03/24 10:08:25;;;;;;;27.07;11.97;;;15.80;18.50;;;;;;5062833;28;45827;-64
2022/03/24 10:11:00;;;;;;;19.47;12.20;;;16.00;18.50;;;;;;5059167;28;46334;-63
2022/03/24 10:13:54;;;;;;;20.50;11.70;;;16.00;17.80;;;;;;5058025;28;46389;-63
2022/03/24 10:16:39;;;;;;;22.63;11.27;;;16.00;17.10;;;;;;5054367;28;47991;-64
2022/03/24 10:19:13;;;;;;;16.93;10.60;;;16.10;17.10;;;;;;5058207;28;46609;-64
2022/03/24 10:21:41;;;;;;;30.70;11.37;;;16.10;16.90;;;;;;5059923;28;46508;-63
2022/03/24 10:24:13;;;;;;;24.87;11.73;;;16.30;16.90;;;;;;5057972;28;46321;-64
2022/03/24 10:27:00;;;;;;;22.30;12.27;;;16.40;16.40;;;;;;5062517;28;46433;-63
2022/03/24 10:29:26;;;;;;;22.20;11.57;;;16.50;15.20;;;;;;5066874;28;46658;-64
2022/03/24 10:31:58;;;;;;;20.30;12.23;;;16.50;15.20;;;;;;5062330;28;46253;-63
2022/03/24 10:34:27;;;;;;;19.93;11.20;;;16.50;15.10;;;;;;5063973;28;46533;-63
2022/03/24 10:36:52;;;;;;;19.37;11.90;;;16.60;14.80;;;;;;5065201;28;46958;-64
2022/03/24 10:39:26;;;;;;;18.53;10.40;;;16.70;14.50;;;;;;5062384;28;46292;-62
2022/03/24 10:41:52;;;;;;;23.87;11.57;;;16.60;14.00;;;;;;5061513;28;46400;-64
2022/03/24 10:44:18;;;;;;;21.77;10.47;;;16.70;14.20;;;;;;5059698;28;46387;-64
2022/03/24 10:46:44;;;;;;;13.00;8.87;;;16.80;13.60;;;;;;5058142;28;46441;-64
2022/03/24 10:49:23;;;;;;;14.83;9.60;;;16.80;13.60;;;;;;5059022;28;46460;-64
2022/03/24 10:51:51;;;;;;;18.13;10.00;;;16.90;13.30;;;;;;5057963;28;46413;-65
2022/03/24 10:54:49;;;;;;;16.10;9.30;;;17.00;13.40;;;;;;5058090;28;46841;-64
2022/03/24 10:57:18;;;;;;;16.90;8.50;;;17.10;12.10;;;;;;5057299;28;47355;-63
2022/03/24 10:59:54;;;;;;;16.37;9.30;;;17.00;11.50;;;;;;5058308;28;46552;-63
2022/03/24 11:02:20;;;;;;;15.87;9.97;;;17.00;11.40;;;;;;5057208;28;46374;-63
2022/03/24 11:04:46;;;;;;;14.47;9.33;;;17.10;11.70;;;;;;5059780;28;46382;-62
2022/03/24 11:07:12;;;;;;;15.90;8.20;;;17.20;11.60;;;;;;5060021;28;47549;-63
2022/03/24 11:09:38;;;;;;;13.40;8.17;;;17.20;11.60;;;;;;5061723;28;46461;-64
2022/03/24 11:12:24;;;;;;;15.40;8.53;;;17.30;11.50;;;;;;5063991;28;46355;-63
2022/03/24 11:14:51;;;;;;;16.10;7.50;;;17.30;11.20;;;;;;5059262;28;46703;-62
2022/03/24 11:17:17;;;;;;;15.43;8.97;;;17.40;11.20;;;;;;5060053;28;47172;-63
2022/03/24 11:20:10;;;;;;;11.00;7.50;;;17.30;10.30;;;;;;5063910;28;46808;-64
2022/03/24 11:22:50;;;;;;;12.57;8.30;;;17.30;10.10;;;;;;5023232;28;46425;-63
2022/03/24 11:25:20;;;;;;;16.67;9.07;;;17.40;10.70;;;;;;5061191;28;46351;-63
2022/03/24 11:27:47;;;;;;;15.63;8.37;;;17.50;10.40;;;;;;5070677;28;46346;-62
2022/03/24 11:30:15;;;;;;;13.13;9.13;;;17.50;10.40;;;;;;5066000;28;45850;-64
2022/03/24 11:32:44;;;;;;;13.97;8.27;;;17.50;9.60;;;;;;5061224;28;46267;-63
2022/03/24 11:35:10;;;;;;;12.00;8.03;;;17.50;9.90;;;;;;5059075;28;46888;-65
2022/03/24 11:37:36;;;;;;;11.50;7.33;;;17.50;9.60;;;;;;5058830;28;46878;-64
2022/03/24 11:40:23;;;;;;;13.50;8.07;;;17.50;9.50;;;;;;5061464;28;46450;-64
2022/03/24 11:43:14;;;;;;;13.80;8.53;;;17.50;9.60;;;;;;5061956;28;46507;-63
2022/03/24 11:45:48;;;;;;;13.83;9.27;;;17.50;9.50;;;;;;5072059;28;46388;-63
2022/03/24 11:48:16;;;;;;;14.20;9.33;;;17.50;9.60;;;;;;5061531;28;46548;-63
2022/03/24 11:50:54;;;;;;;16.37;9.80;;;17.50;9.50;;;;;;5060967;28;46781;-63
2022/03/24 11:53:23;;;;;;;17.03;9.87;;;17.60;9.70;;;;;;5067182;28;46476;-62
2022/03/24 11:56:04;;;;;;;15.70;9.73;;;17.70;9.70;;;;;;5058830;28;46417;-62
2022/03/24 11:58:54;;;;;;;18.43;10.07;;;17.70;9.80;;;;;;5060933;28;46186;-63
2022/03/24 12:01:19;;;;;;;18.87;9.77;;;17.70;9.80;;;;;;5058899;28;46460;-63
2022/03/24 12:04:03;;;;;;;15.47;9.00;;;17.70;9.70;;;;;;5060273;28;46597;-62
2022/03/24 12:06:44;;;;;;;13.73;9.47;;;17.70;9.70;;;;;;5063912;28;45881;-62
2022/03/24 12:09:13;;;;;;;15.57;10.00;;;17.70;9.70;;;;;;5060463;28;46663;-62
2022/03/24 12:11:53;;;;;;;22.40;11.67;;;17.70;9.70;;;;;;5062068;28;46576;-62
2022/03/24 12:14:30;;;;;;;15.37;9.00;;;17.70;9.70;;;;;;5067005;28;46607;-63
2022/03/24 12:16:56;;;;;;;15.60;10.10;;;17.70;9.80;;;;;;5061686;28;46496;-63
2022/03/24 12:19:43;;;;;;;17.10;10.63;;;17.70;9.70;;;;;;5063776;28;46471;-63
2022/03/24 12:22:30;;;;;;;16.53;9.13;;;17.80;9.80;;;;;;5069501;28;46378;-62
2022/03/24 12:24:59;;;;;;;14.90;9.53;;;17.80;8.70;;;;;;5061637;28;46340;-62
2022/03/24 12:27:31;;;;;;;18.37;9.93;;;17.80;9.10;;;;;;5061062;28;46394;-63
2022/03/24 12:30:15;;;;;;;16.00;10.70;;;17.80;8.70;;;;;;5069157;28;46706;-62
2022/03/24 12:32:42;;;;;;;22.03;11.27;;;17.80;8.80;;;;;;5061887;28;46413;-63
2022/03/24 12:35:28;;;;;;;15.70;9.90;;;17.80;8.90;;;;;;5061121;28;46342;-63
2022/03/24 12:37:55;;;;;;;18.53;10.73;;;17.80;8.90;;;;;;5059940;28;46369;-64
2022/03/24 12:40:20;;;;;;;16.87;10.00;;;17.90;9.40;;;;;;5060477;28;46373;-63
2022/03/24 12:42:53;;;;;;;16.53;10.37;;;18.00;9.40;;;;;;5058454;28;46449;-62
2022/03/24 12:45:37;;;;;;;16.57;9.33;;;18.10;9.60;;;;;;5060392;28;45791;-63